createdAt,value
2023-05-25T00:01:17.393Z,5.03
2023-05-25T00:03:48.193Z,4.53
2023-05-25T00:06:19.275Z,4.75
2023-05-25T00:08:49.409Z,4.93
2023-05-25T00:11:20.458Z,4.25
2023-05-25T00:13:49.440Z,4.43
2023-05-25T00:16:18.517Z,5.32
2023-05-25T00:18:49.711Z,5.65
2023-05-25T00:21:19.058Z,4.65
2023-05-25T00:23:48.181Z,4.35
2023-05-25T00:26:17.447Z,5.18
2023-05-25T00:28:46.533Z,4.70
2023-05-25T00:31:15.712Z,4.75
2023-05-25T00:33:45.097Z,5.03
2023-05-25T00:36:15.982Z,4.93
2023-05-25T00:38:45.023Z,4.60
2023-05-25T00:41:15.365Z,4.28
2023-05-25T00:43:46.014Z,4.82
2023-05-25T00:46:16.636Z,5.05
2023-05-25T00:48:45.711Z,4.20
2023-05-25T00:51:17.314Z,4.30
2023-05-25T00:53:46.384Z,3.75
2023-05-25T00:56:21.110Z,4.32
2023-05-25T00:58:54.997Z,4.50
2023-05-25T01:01:25.199Z,4.75
2023-05-25T01:03:57.364Z,4.63
2023-05-25T01:06:32.911Z,4.00
2023-05-25T01:09:06.382Z,3.95
2023-05-25T01:11:37.714Z,4.75
2023-05-25T01:14:07.443Z,3.85
2023-05-25T01:16:36.892Z,3.90
2023-05-25T01:19:06.535Z,4.07
2023-05-25T01:21:42.937Z,3.92
2023-05-25T01:24:33.272Z,4.20
2023-05-25T01:27:15.074Z,4.03
2023-05-25T01:29:46.897Z,4.30
2023-05-25T01:32:18.629Z,3.70
2023-05-25T01:34:49.578Z,3.97
2023-05-25T01:37:21.265Z,4.20
2023-05-25T01:39:50.294Z,4.38
2023-05-25T01:42:19.360Z,4.13
2023-05-25T01:44:48.476Z,4.15
2023-05-25T01:47:23.266Z,4.07
2023-05-25T01:50:01.451Z,4.72
2023-05-25T01:52:37.195Z,4.00
2023-05-25T01:55:09.645Z,4.18
2023-05-25T01:57:42.438Z,4.22
2023-05-25T02:00:13.275Z,4.45
2023-05-25T02:02:44.914Z,3.92
2023-05-25T02:05:14.792Z,3.78
2023-05-25T02:07:45.531Z,3.85
2023-05-25T02:10:14.580Z,3.35
2023-05-25T02:12:43.716Z,4.32
2023-05-25T02:15:13.483Z,4.10
2023-05-25T02:17:44.160Z,4.00
2023-05-25T02:20:14.700Z,3.58
2023-05-25T02:22:45.372Z,3.95
2023-05-25T02:25:14.367Z,3.80
2023-05-25T02:27:44.422Z,3.70
2023-05-25T02:30:13.952Z,3.67
2023-05-25T02:32:43.070Z,3.75
2023-05-25T02:35:12.557Z,3.85
2023-05-25T02:37:41.718Z,3.92
2023-05-25T02:40:14.806Z,3.60
2023-05-25T02:42:43.890Z,4.05
2023-05-25T02:45:13.471Z,3.72
2023-05-25T02:47:42.572Z,3.60
2023-05-25T02:50:12.387Z,3.70
2023-05-25T02:52:41.538Z,3.70
2023-05-25T02:55:14.446Z,3.83
2023-05-25T02:57:43.540Z,3.40
2023-05-25T03:00:13.589Z,3.55
2023-05-25T03:02:42.728Z,3.50
2023-05-25T03:05:11.937Z,3.25
2023-05-25T03:07:41.971Z,3.50
2023-05-25T03:10:13.446Z,3.40
2023-05-25T03:12:42.534Z,3.20
2023-05-25T03:15:14.195Z,3.35
2023-05-25T03:17:43.238Z,3.40
2023-05-25T03:20:13.349Z,3.63
2023-05-25T03:22:43.853Z,3.10
2023-05-25T03:25:14.567Z,3.60
2023-05-25T03:27:43.627Z,3.38
2023-05-25T03:30:13.696Z,3.33
2023-05-25T03:32:42.754Z,3.40
2023-05-25T03:35:12.021Z,3.30
2023-05-25T03:37:41.309Z,3.22
2023-05-25T03:40:12.327Z,3.33
2023-05-25T03:42:43.051Z,3.03
2023-05-25T03:45:12.750Z,3.20
2023-05-25T03:47:42.033Z,3.38
2023-05-25T03:50:12.282Z,3.67
2023-05-25T03:52:41.500Z,3.50
2023-05-25T03:55:11.254Z,3.40
2023-05-25T03:57:42.018Z,3.03
2023-05-25T04:00:12.383Z,3.47
2023-05-25T04:02:41.660Z,3.33
2023-05-25T04:05:11.483Z,3.35
2023-05-25T04:07:41.611Z,3.30
2023-05-25T04:10:11.558Z,3.15
2023-05-25T04:12:42.388Z,3.58
2023-05-25T04:15:15.050Z,3.35
2023-05-25T04:17:44.088Z,3.20
2023-05-25T04:20:13.679Z,3.53
2023-05-25T04:22:44.754Z,3.22
2023-05-25T04:25:14.072Z,3.50
2023-05-25T04:27:47.490Z,3.50
2023-05-25T04:30:16.742Z,3.33
2023-05-25T04:32:46.743Z,3.47
2023-05-25T04:35:16.283Z,3.70
2023-05-25T04:37:45.366Z,3.45
2023-05-25T04:40:15.014Z,3.60
2023-05-25T04:42:46.079Z,3.70
2023-05-25T04:45:18.240Z,3.45
2023-05-25T04:47:48.386Z,3.53
2023-05-25T04:50:17.495Z,3.70
2023-05-25T04:52:46.745Z,3.30
2023-05-25T04:55:15.749Z,3.55
2023-05-25T04:57:46.636Z,3.40
2023-05-25T05:00:16.823Z,3.20
2023-05-25T05:02:45.969Z,3.42
2023-05-25T05:05:15.026Z,2.92
2023-05-25T05:07:44.135Z,3.30
2023-05-25T05:10:13.422Z,3.33
2023-05-25T05:12:42.480Z,3.22
2023-05-25T05:15:13.529Z,3.45
2023-05-25T05:17:42.558Z,3.50
2023-05-25T05:20:12.186Z,3.33
2023-05-25T05:22:41.393Z,3.47
2023-05-25T05:25:11.405Z,3.17
2023-05-25T05:27:40.501Z,3.40
2023-05-25T05:30:12.299Z,3.30
2023-05-25T05:32:41.374Z,3.60
2023-05-25T05:35:11.071Z,3.30
2023-05-25T05:37:40.282Z,3.33
2023-05-25T05:40:11.809Z,3.30
2023-05-25T05:42:40.866Z,3.30
2023-05-25T05:45:12.341Z,3.33
2023-05-25T05:47:41.488Z,3.00
2023-05-25T05:50:11.230Z,3.50
2023-05-25T05:52:40.311Z,3.05
2023-05-25T05:55:10.129Z,4.15
2023-05-25T05:57:39.181Z,3.45
2023-05-25T06:00:09.841Z,3.15
2023-05-25T06:02:41.942Z,3.65
2023-05-25T06:05:11.655Z,3.50
2023-05-25T06:07:41.112Z,3.67
2023-05-25T06:10:11.051Z,3.85
2023-05-25T06:12:40.073Z,4.10
2023-05-25T06:15:10.036Z,3.78
2023-05-25T06:17:41.060Z,3.65
2023-05-25T06:20:11.303Z,3.72
2023-05-25T06:22:40.386Z,3.38
2023-05-25T06:25:11.249Z,3.55
2023-05-25T06:27:40.455Z,3.67
2023-05-25T06:30:10.470Z,3.55
2023-05-25T06:32:41.404Z,3.50
2023-05-25T06:35:13.525Z,3.83
2023-05-25T06:37:42.688Z,3.53
2023-05-25T06:40:12.656Z,3.40
2023-05-25T06:42:42.461Z,3.60
2023-05-25T06:45:12.196Z,3.75
2023-05-25T06:47:42.965Z,3.42
2023-05-25T06:50:13.355Z,3.67
2023-05-25T06:52:42.553Z,3.70
2023-05-25T06:55:12.300Z,3.42
2023-05-25T06:57:42.504Z,3.40
2023-05-25T07:00:13.146Z,3.80
2023-05-25T07:02:43.904Z,3.78
2023-05-25T07:05:12.986Z,3.55
2023-05-25T07:07:42.525Z,3.70
2023-05-25T07:10:27.353Z,4.00
2023-05-25T07:12:56.612Z,3.60
2023-05-25T07:15:25.701Z,3.95
2023-05-25T07:17:58.059Z,3.75
2023-05-25T07:20:28.383Z,3.80
2023-05-25T07:22:57.505Z,4.00
2023-05-25T07:25:29.166Z,3.88
2023-05-25T07:27:58.529Z,3.60
2023-05-25T07:30:27.589Z,4.28
2023-05-25T07:32:59.103Z,4.38
2023-05-25T07:35:30.878Z,4.38
2023-05-25T07:38:00.866Z,4.32
2023-05-25T07:40:30.110Z,5.28
2023-05-25T07:42:59.268Z,4.95
2023-05-25T07:45:28.413Z,4.15
2023-05-25T07:47:59.143Z,4.43
2023-05-25T07:50:29.462Z,4.85
2023-05-25T07:53:03.182Z,4.45
2023-05-25T07:55:34.266Z,4.53
2023-05-25T07:58:08.280Z,4.93
2023-05-25T08:00:37.367Z,4.80
2023-05-25T08:03:08.259Z,4.63
2023-05-25T08:05:37.459Z,4.65
2023-05-25T08:08:06.716Z,4.53
2023-05-25T08:10:56.610Z,4.35
2023-05-25T08:13:25.677Z,4.32
2023-05-25T08:15:54.666Z,4.15
2023-05-25T08:18:25.321Z,4.32
2023-05-25T08:20:54.356Z,4.68
2023-05-25T08:23:23.419Z,4.13
2023-05-25T08:25:52.517Z,4.88
2023-05-25T08:28:22.298Z,4.68
2023-05-25T08:30:51.496Z,4.30
2023-05-25T08:33:20.564Z,4.50
2023-05-25T08:35:51.404Z,4.20
2023-05-25T08:38:20.663Z,4.38
2023-05-25T08:40:56.754Z,4.38
2023-05-25T08:45:54.903Z,4.53
2023-05-25T08:48:39.971Z,4.88
2023-05-25T08:51:14.547Z,5.18
2023-05-25T08:53:46.418Z,5.07
2023-05-25T08:56:20.692Z,4.70
2023-05-25T08:58:56.886Z,4.57
2023-05-25T09:03:59.821Z,4.90
2023-05-25T09:06:31.005Z,5.03
2023-05-25T09:09:00.207Z,4.95
2023-05-25T09:11:38.612Z,6.15
2023-05-25T09:14:09.982Z,4.75
2023-05-25T09:16:39.630Z,4.88
2023-05-25T09:19:08.691Z,4.75
2023-05-25T09:21:47.657Z,4.95
2023-05-25T09:24:17.980Z,4.75
2023-05-25T09:26:49.848Z,4.75
2023-05-25T09:29:18.979Z,5.20
2023-05-25T09:31:48.302Z,5.20
2023-05-25T09:34:17.434Z,4.78
2023-05-25T09:36:48.302Z,5.75
2023-05-25T09:39:18.056Z,5.97
2023-05-25T09:41:47.388Z,5.57
2023-05-25T09:44:16.516Z,5.28
2023-05-25T09:46:45.806Z,6.40
2023-05-25T09:49:15.017Z,5.65
2023-05-25T09:51:44.240Z,5.65
2023-05-25T09:54:15.129Z,6.05
2023-05-25T09:56:44.941Z,6.70
2023-05-25T09:59:14.321Z,6.00
2023-05-25T10:01:45.297Z,6.18
2023-05-25T10:04:17.834Z,6.07
2023-05-25T10:06:52.498Z,6.38
2023-05-25T10:09:24.868Z,6.32
2023-05-25T10:11:56.766Z,6.25
2023-05-25T10:14:29.732Z,6.47
2023-05-25T10:17:06.972Z,6.20
2023-05-25T10:19:43.620Z,6.05
2023-05-25T10:22:17.433Z,6.40
2023-05-25T10:24:57.077Z,6.47
2023-05-25T10:27:30.647Z,6.15
2023-05-25T10:30:02.926Z,6.00
2023-05-25T10:32:33.902Z,5.95
2023-05-25T10:35:04.580Z,6.25
2023-05-25T10:37:35.792Z,5.50
2023-05-25T10:40:11.114Z,5.57
2023-05-25T10:42:43.163Z,5.60
2023-05-25T10:45:13.191Z,5.40
2023-05-25T10:47:43.692Z,5.53
2023-05-25T10:50:23.842Z,6.68
2023-05-25T10:53:03.067Z,5.18
2023-05-25T10:55:45.310Z,5.20
2023-05-25T10:58:16.669Z,5.38
2023-05-25T11:00:59.501Z,5.57
2023-05-25T11:03:50.595Z,5.25
2023-05-25T11:06:22.378Z,4.97
2023-05-25T11:08:52.456Z,5.05
2023-05-25T11:11:23.723Z,4.82
2023-05-25T11:13:52.829Z,4.90
2023-05-25T11:16:25.083Z,5.57
2023-05-25T11:18:56.081Z,5.22
2023-05-25T11:21:46.018Z,4.70
2023-05-25T11:24:16.899Z,5.05
2023-05-25T11:26:58.886Z,4.70
2023-05-25T11:29:32.958Z,4.63
2023-05-25T11:32:02.148Z,5.13
2023-05-25T11:34:35.182Z,4.90
2023-05-25T11:37:04.653Z,4.57
2023-05-25T11:39:34.155Z,4.60
2023-05-25T11:42:09.073Z,5.00
2023-05-25T11:44:39.948Z,4.35
2023-05-25T11:47:19.783Z,4.40
2023-05-25T11:49:50.746Z,5.00
2023-05-25T11:52:21.380Z,4.47
2023-05-25T11:54:50.630Z,4.57
2023-05-25T11:57:23.546Z,4.68
2023-05-25T11:59:53.564Z,4.53
2023-05-25T12:02:29.361Z,4.97
2023-05-25T12:05:00.045Z,5.07
2023-05-25T12:07:30.305Z,5.15
2023-05-25T12:10:16.333Z,5.38
2023-05-25T12:12:48.074Z,5.53
2023-05-25T12:15:20.628Z,5.53
2023-05-25T12:17:50.810Z,5.25
2023-05-25T12:20:21.504Z,5.55
2023-05-25T12:22:50.975Z,5.38
2023-05-25T12:25:22.728Z,6.03
2023-05-25T12:28:12.421Z,5.07
2023-05-25T12:30:42.001Z,5.10
2023-05-25T12:33:15.934Z,4.90
2023-05-25T12:35:49.136Z,5.00
2023-05-25T12:38:20.101Z,5.25
2023-05-25T12:41:05.342Z,5.25
2023-05-25T12:43:40.975Z,5.13
2023-05-25T12:46:10.420Z,5.00
2023-05-25T12:48:39.754Z,5.20
2023-05-25T12:51:11.485Z,4.90
2023-05-25T12:53:50.312Z,5.10
2023-05-25T12:56:19.390Z,4.53
2023-05-25T12:58:50.063Z,5.22
2023-05-25T13:01:19.213Z,5.25
2023-05-25T13:03:48.356Z,4.65
2023-05-25T13:06:29.654Z,5.32
2023-05-25T13:08:58.678Z,4.65
2023-05-25T13:11:28.622Z,4.95
2023-05-25T13:13:59.321Z,4.90
2023-05-25T13:16:29.653Z,4.30
2023-05-25T13:19:02.252Z,4.40
2023-05-25T13:21:31.333Z,4.72
2023-05-25T13:24:00.395Z,4.40
2023-05-25T13:26:29.555Z,4.30
2023-05-25T13:29:00.348Z,4.25
2023-05-25T13:31:29.388Z,3.60
2023-05-25T13:33:59.986Z,4.25
2023-05-25T13:36:29.088Z,3.63
2023-05-25T13:39:00.006Z,3.70
2023-05-25T13:41:29.171Z,3.92
2023-05-25T13:43:59.952Z,3.63
2023-05-25T13:46:34.649Z,3.70
2023-05-25T13:49:04.816Z,3.30
2023-05-25T13:51:36.374Z,3.10
2023-05-25T13:54:05.809Z,3.40
2023-05-25T13:56:34.972Z,3.10
2023-05-25T13:59:05.796Z,2.90
2023-05-25T14:01:35.294Z,3.25
2023-05-25T14:04:07.496Z,2.95
2023-05-25T14:06:36.845Z,3.40
2023-05-25T14:09:06.336Z,3.40
2023-05-25T14:11:35.348Z,3.13
2023-05-25T14:14:23.304Z,3.30
2023-05-25T14:16:56.451Z,3.10
2023-05-25T14:19:25.526Z,3.03
2023-05-25T14:22:10.916Z,3.35
2023-05-25T14:24:41.582Z,3.45
2023-05-25T14:27:10.724Z,3.65
2023-05-25T14:29:53.877Z,3.00
2023-05-25T14:32:26.017Z,3.30
2023-05-25T14:35:01.347Z,3.30
2023-05-25T14:37:30.387Z,3.60
2023-05-25T14:40:05.792Z,3.75
2023-05-25T14:42:34.838Z,3.83
2023-05-25T14:45:07.101Z,3.63
2023-05-25T14:47:37.237Z,3.80
2023-05-25T14:50:07.073Z,3.90
2023-05-25T14:52:37.403Z,4.78
2023-05-25T14:55:07.032Z,4.20
2023-05-25T14:57:36.377Z,4.75
2023-05-25T15:00:08.352Z,4.07
2023-05-25T15:02:37.540Z,4.78
2023-05-25T15:05:07.460Z,3.83
2023-05-25T15:07:36.472Z,3.95
2023-05-25T15:10:05.889Z,4.15
2023-05-25T15:12:35.017Z,3.75
2023-05-25T15:15:06.015Z,4.28
2023-05-25T15:17:35.230Z,4.00
2023-05-25T15:20:04.655Z,4.05
2023-05-25T15:22:33.692Z,3.55
2023-05-25T15:25:02.959Z,3.30
2023-05-25T15:27:33.143Z,3.00
2023-05-25T15:30:02.278Z,2.92
2023-05-25T15:32:32.992Z,3.15
2023-05-25T15:35:02.152Z,3.03
2023-05-25T15:37:31.660Z,3.40
2023-05-25T15:40:00.705Z,3.35
2023-05-25T15:42:29.819Z,3.83
2023-05-25T15:44:58.870Z,3.28
2023-05-25T15:47:27.949Z,3.15
2023-05-25T15:49:58.756Z,3.22
2023-05-25T15:52:27.877Z,3.22
2023-05-25T15:54:56.925Z,3.38
2023-05-25T15:57:26.046Z,3.50
2023-05-25T15:59:55.394Z,3.55
2023-05-25T16:02:24.479Z,3.35
2023-05-25T16:04:53.563Z,3.05
2023-05-25T16:07:24.285Z,3.08
2023-05-25T16:09:53.366Z,3.20
2023-05-25T16:12:24.811Z,3.40
2023-05-25T16:14:54.504Z,3.60
2023-05-25T16:17:23.510Z,3.10
2023-05-25T16:19:52.621Z,3.20
2023-05-25T16:22:23.382Z,3.00
2023-05-25T16:24:52.433Z,3.30
2023-05-25T16:27:21.537Z,3.17
2023-05-25T16:29:50.616Z,3.13
2023-05-25T16:32:20.128Z,3.40
2023-05-25T16:34:49.252Z,3.30
2023-05-25T16:37:18.331Z,3.10
2023-05-25T16:39:49.099Z,3.42
2023-05-25T16:42:18.164Z,3.55
2023-05-25T16:44:47.159Z,3.28
2023-05-25T16:47:16.143Z,3.65
2023-05-25T16:49:45.233Z,3.53
2023-05-25T16:52:14.348Z,3.58
2023-05-25T16:54:43.450Z,3.58
2023-05-25T16:57:14.132Z,3.53
2023-05-25T16:59:43.199Z,4.38
2023-05-25T17:02:12.274Z,3.30
2023-05-25T17:04:41.364Z,3.60
2023-05-25T17:07:19.235Z,3.50
2023-05-25T17:09:48.357Z,3.75
2023-05-25T17:12:19.088Z,3.72
2023-05-25T17:14:48.083Z,3.70
2023-05-25T17:17:17.648Z,3.88
2023-05-25T17:19:46.971Z,3.90
2023-05-25T17:22:16.241Z,4.10
2023-05-25T17:24:45.313Z,3.20
2023-05-25T17:27:14.610Z,3.53
2023-05-25T17:29:45.301Z,3.80
2023-05-25T17:32:14.408Z,4.63
2023-05-25T17:34:43.564Z,4.10
2023-05-25T17:37:12.753Z,4.18
2023-05-25T17:39:43.457Z,4.30
2023-05-25T17:42:12.628Z,3.70
2023-05-25T17:44:43.233Z,3.67
2023-05-25T17:47:14.124Z,3.88
2023-05-25T17:49:43.221Z,4.60
2023-05-25T17:52:12.357Z,4.60
2023-05-25T17:54:41.693Z,4.05
2023-05-25T17:57:10.737Z,4.07
2023-05-25T17:59:39.739Z,3.90
2023-05-25T18:02:09.185Z,3.80
2023-05-25T18:04:40.004Z,4.25
2023-05-25T18:07:09.154Z,4.05
2023-05-25T18:09:38.238Z,3.97
2023-05-25T18:12:08.430Z,4.40
2023-05-25T18:14:38.696Z,4.60
2023-05-25T18:17:07.866Z,4.20
2023-05-25T18:19:38.615Z,4.10
2023-05-25T18:22:07.791Z,4.05
2023-05-25T18:24:37.018Z,4.22
2023-05-25T18:27:06.956Z,4.00
2023-05-25T18:29:35.996Z,3.88
2023-05-25T18:32:05.168Z,3.40
2023-05-25T18:34:34.537Z,3.40
2023-05-25T18:37:05.440Z,3.28
2023-05-25T18:39:34.773Z,3.53
2023-05-25T18:42:03.855Z,3.80
2023-05-25T18:44:32.943Z,4.65
2023-05-25T18:47:02.051Z,4.75
2023-05-25T18:49:35.379Z,4.30
2023-05-25T18:52:07.482Z,4.22
2023-05-25T18:54:37.103Z,4.30
2023-05-25T18:57:07.566Z,4.13
2023-05-25T18:59:36.676Z,4.10
2023-05-25T19:02:06.076Z,3.85
2023-05-25T19:04:35.340Z,4.28
2023-05-25T19:07:06.354Z,3.97
2023-05-25T19:09:35.491Z,3.80
2023-05-25T19:12:05.584Z,3.50
2023-05-25T19:14:34.679Z,4.03
2023-05-25T19:17:03.736Z,3.33
2023-05-25T19:19:32.810Z,3.53
2023-05-25T19:22:01.944Z,3.70
2023-05-25T19:24:32.866Z,3.40
2023-05-25T19:27:02.717Z,3.63
2023-05-25T19:29:31.769Z,3.80
2023-05-25T19:32:00.927Z,4.05
2023-05-25T19:34:29.995Z,3.70
2023-05-25T19:37:10.788Z,3.67
2023-05-25T19:39:42.546Z,4.35
2023-05-25T19:42:11.632Z,4.10
2023-05-25T19:44:41.818Z,3.50
2023-05-25T19:47:10.855Z,3.50
2023-05-25T19:49:39.978Z,3.20
2023-05-25T19:52:09.103Z,3.38
2023-05-25T19:54:38.120Z,3.88
2023-05-25T19:57:08.921Z,3.40
2023-05-25T19:59:38.800Z,3.60
2023-05-25T20:02:08.021Z,3.30
2023-05-25T20:04:38.619Z,3.38
2023-05-25T20:07:08.925Z,3.40
2023-05-25T20:09:39.399Z,3.17
2023-05-25T20:12:10.377Z,3.60
2023-05-25T20:14:39.523Z,3.60
2023-05-25T20:17:08.633Z,3.42
2023-05-25T20:19:37.634Z,3.58
2023-05-25T20:22:09.107Z,3.40
2023-05-25T20:24:38.222Z,3.67
2023-05-25T20:27:09.283Z,3.50
2023-05-25T20:29:38.344Z,3.55
2023-05-25T20:32:07.917Z,3.78
2023-05-25T20:34:37.314Z,3.20
2023-05-25T20:37:06.670Z,3.00
2023-05-25T20:39:36.869Z,3.60
2023-05-25T20:42:07.762Z,3.63
2023-05-25T20:44:38.818Z,3.70
2023-05-25T20:47:08.083Z,3.58
2023-05-25T20:49:37.171Z,3.90
2023-05-25T20:52:06.580Z,3.13
2023-05-25T20:54:37.533Z,3.40
2023-05-25T20:57:08.567Z,3.70
2023-05-25T20:59:39.320Z,3.70
2023-05-25T21:02:08.541Z,3.30
2023-05-25T21:04:37.683Z,3.53
2023-05-25T21:07:07.344Z,3.20
2023-05-25T21:09:36.488Z,3.25
2023-05-25T21:12:05.800Z,3.60
2023-05-25T21:14:34.900Z,3.58
2023-05-25T21:17:05.676Z,3.83
2023-05-25T21:19:34.799Z,3.20
2023-05-25T21:22:04.653Z,3.50
2023-05-25T21:24:33.720Z,4.15
2023-05-25T21:27:03.284Z,3.95
2023-05-25T21:29:32.447Z,3.65
2023-05-25T21:32:01.624Z,3.67
2023-05-25T21:34:32.843Z,3.28
2023-05-25T21:37:01.853Z,3.53
2023-05-25T21:39:30.908Z,4.32
2023-05-25T21:42:00.016Z,3.95
2023-05-25T21:44:29.055Z,3.40
2023-05-25T21:46:58.297Z,3.88
2023-05-25T21:49:27.525Z,3.35
2023-05-25T21:51:58.307Z,4.07
2023-05-25T21:54:27.380Z,3.58
2023-05-25T21:56:56.491Z,3.60
2023-05-25T21:59:25.552Z,4.03
2023-05-25T22:01:54.633Z,4.15
2023-05-25T22:04:23.764Z,3.83
2023-05-25T22:06:52.934Z,3.88
2023-05-25T22:09:23.700Z,3.85
2023-05-25T22:11:52.778Z,3.90
2023-05-25T22:14:21.775Z,4.00
2023-05-25T22:16:51.024Z,4.07
2023-05-25T22:19:20.160Z,4.10
2023-05-25T22:21:49.177Z,3.63
2023-05-25T22:24:18.291Z,3.80
2023-05-25T22:26:49.580Z,3.55
2023-05-25T22:29:18.657Z,4.35
2023-05-25T22:31:47.807Z,3.78
2023-05-25T22:34:16.906Z,3.80
2023-05-25T22:36:46.018Z,3.90
2023-05-25T22:39:15.033Z,3.80
2023-05-25T22:41:44.119Z,4.25
2023-05-25T22:44:14.939Z,4.10
2023-05-25T22:46:43.985Z,3.88
2023-05-25T22:49:13.012Z,4.20
2023-05-25T22:51:42.038Z,4.22
2023-05-25T22:54:11.049Z,3.58
2023-05-25T22:56:40.008Z,4.00
2023-05-25T22:59:09.068Z,3.75
2023-05-25T23:01:39.774Z,4.20
2023-05-25T23:04:09.815Z,3.70
2023-05-25T23:06:39.109Z,3.70
2023-05-25T23:09:10.858Z,4.13
2023-05-25T23:11:39.918Z,4.22
2023-05-25T23:14:08.931Z,3.83
2023-05-25T23:16:39.863Z,3.75
2023-05-25T23:19:09.050Z,3.95
2023-05-25T23:21:38.772Z,3.75
2023-05-25T23:24:08.255Z,3.97
2023-05-25T23:26:37.381Z,3.92
2023-05-25T23:29:06.632Z,4.45
2023-05-25T23:31:35.836Z,4.13
2023-05-25T23:34:06.741Z,3.67
2023-05-25T23:36:39.223Z,4.22
2023-05-25T23:39:08.930Z,4.13
2023-05-25T23:41:37.961Z,4.68
2023-05-25T23:44:07.601Z,4.65
2023-05-25T23:46:36.982Z,4.30
2023-05-25T23:49:10.636Z,3.90
2023-05-25T23:51:39.975Z,4.22
2023-05-25T23:54:09.007Z,4.20
2023-05-25T23:56:38.035Z,3.92
2023-05-25T23:59:07.255Z,3.90
